createdAt,value
2023-05-05T04:22:07.861Z,74.29
2023-05-05T04:25:22.342Z,74.29
2023-05-05T04:28:37.855Z,75.02
2023-05-05T04:31:52.143Z,75.21
2023-05-05T04:35:06.938Z,73.77
2023-05-05T04:38:22.752Z,73.24
2023-05-05T04:41:37.748Z,71.96
2023-05-05T04:44:52.060Z,71.20
2023-05-05T04:48:07.101Z,71.62
2023-05-05T04:51:21.394Z,72.19
2023-05-05T04:54:39.915Z,71.96
2023-05-05T04:57:54.922Z,70.42
2023-05-05T05:01:09.488Z,69.01
2023-05-05T05:04:27.475Z,70.35
2023-05-05T05:07:44.112Z,68.08
2023-05-05T05:11:00.434Z,67.27
2023-05-05T05:14:15.203Z,67.46
2023-05-05T05:17:31.073Z,67.51
2023-05-05T05:20:45.885Z,67.07
2023-05-05T05:24:00.422Z,66.19
2023-05-05T05:27:18.455Z,65.14
2023-05-05T05:30:36.105Z,65.39
2023-05-05T05:34:02.657Z,64.85
2023-05-05T05:37:33.087Z,64.66
2023-05-05T05:40:56.186Z,64.62
2023-05-05T05:44:30.266Z,64.37
2023-05-05T05:56:32.163Z,61.40
2023-05-05T05:59:55.071Z,59.69
2023-05-05T06:03:18.101Z,57.47
2023-05-05T06:07:15.131Z,56.06
2023-05-05T06:10:32.608Z,56.40
2023-05-05T06:13:48.020Z,56.01
2023-05-05T06:17:09.856Z,56.76
2023-05-05T06:20:32.232Z,54.47
2023-05-05T06:23:56.170Z,55.36
2023-05-05T06:27:38.926Z,54.67
2023-05-05T06:31:01.930Z,54.61
2023-05-05T06:34:32.137Z,52.62
2023-05-05T06:37:56.856Z,49.38
2023-05-05T06:41:13.826Z,50.91
2023-05-05T06:44:33.901Z,52.03
2023-05-05T06:47:52.954Z,52.23
2023-05-05T06:51:09.169Z,53.42
2023-05-05T06:55:36.258Z,53.36
2023-05-05T06:59:00.467Z,52.68
2023-05-05T07:02:16.574Z,53.11
2023-05-05T07:05:34.278Z,53.28
2023-05-05T07:09:17.871Z,52.52
2023-05-05T07:13:00.157Z,53.87
2023-05-05T07:20:19.783Z,52.72
2023-05-05T07:23:46.041Z,53.35
2023-05-05T07:27:18.597Z,52.25
2023-05-05T07:30:38.555Z,52.41
2023-05-05T07:34:01.850Z,52.90
2023-05-05T07:37:42.889Z,52.37
2023-05-05T07:41:00.314Z,52.21
2023-05-05T07:44:18.499Z,53.80
2023-05-05T07:48:02.852Z,52.93
2023-05-05T07:51:41.895Z,52.33
2023-05-05T07:55:08.297Z,53.03
2023-05-05T07:58:22.984Z,53.60
2023-05-05T08:01:43.422Z,52.77
2023-05-05T08:05:12.871Z,53.28
2023-05-05T08:08:49.673Z,54.18
2023-05-05T08:12:05.189Z,54.21
2023-05-05T08:19:33.868Z,53.54
2023-05-05T08:22:54.382Z,53.66
2023-05-05T08:26:42.795Z,53.48
2023-05-05T08:30:17.020Z,53.39
2023-05-05T08:37:10.849Z,51.58
2023-05-05T08:40:27.633Z,53.33
2023-05-05T08:51:43.037Z,52.35
2023-05-05T08:55:16.040Z,54.20
2023-05-05T08:58:43.368Z,52.18
2023-05-05T09:02:00.612Z,51.44
2023-05-05T09:05:15.728Z,52.84
2023-05-05T09:08:30.254Z,53.00
2023-05-05T09:11:46.635Z,52.63
2023-05-05T09:15:03.758Z,51.65
2023-05-05T09:18:18.332Z,51.83
2023-05-05T09:21:32.790Z,51.23
2023-05-05T09:24:57.149Z,51.25
2023-05-05T09:28:13.589Z,50.71
2023-05-05T09:31:28.119Z,51.34
2023-05-05T09:34:42.526Z,50.11
2023-05-05T09:38:19.348Z,51.39
2023-05-05T09:41:41.487Z,51.64
2023-05-05T09:45:00.268Z,51.37
2023-05-05T09:48:27.793Z,49.57
2023-05-05T09:51:42.989Z,49.45
2023-05-05T09:54:58.896Z,47.32
2023-05-05T09:58:32.036Z,48.97
2023-05-05T10:02:29.747Z,47.00
2023-05-05T10:14:26.855Z,49.02
2023-05-05T10:18:07.342Z,48.52
2023-05-05T10:21:25.180Z,47.90
2023-05-05T10:29:01.268Z,48.46
2023-05-05T10:36:01.810Z,46.46
2023-05-05T10:39:20.683Z,44.61
2023-05-05T10:42:54.014Z,45.64
2023-05-05T10:46:17.671Z,45.57
2023-05-05T10:49:40.493Z,45.05
2023-05-05T10:53:35.070Z,45.66
2023-05-05T11:05:35.877Z,44.39
2023-05-05T11:08:53.514Z,44.89
2023-05-05T11:12:10.339Z,46.00
2023-05-05T11:15:51.938Z,46.16
2023-05-05T11:23:25.460Z,45.38
2023-05-05T11:26:59.943Z,46.02
2023-05-05T11:30:36.092Z,46.75
2023-05-05T11:33:51.148Z,45.94
2023-05-05T11:37:07.983Z,45.10
2023-05-05T11:40:26.666Z,43.35
2023-05-05T11:43:44.347Z,43.22
2023-05-05T11:47:34.762Z,43.67
2023-05-05T11:50:49.128Z,44.17
2023-05-05T11:54:03.477Z,44.28
2023-05-05T11:57:21.587Z,44.59
2023-05-05T12:00:54.792Z,44.86
2023-05-05T12:04:22.750Z,44.64
2023-05-05T12:07:51.722Z,42.47
2023-05-05T12:11:08.209Z,40.71
2023-05-05T12:14:31.809Z,39.65
2023-05-05T12:22:24.798Z,39.25
2023-05-05T12:25:47.203Z,40.40
2023-05-05T12:29:02.090Z,38.02
2023-05-05T12:36:39.923Z,38.24
2023-05-05T12:39:56.556Z,39.21
2023-05-05T12:43:12.781Z,38.99
2023-05-05T12:46:33.504Z,39.23
2023-05-05T12:49:52.697Z,38.90
2023-05-05T12:53:10.103Z,40.16
2023-05-05T12:56:40.062Z,41.25
2023-05-05T13:00:05.830Z,40.72
2023-05-05T13:03:33.487Z,38.14
2023-05-05T13:06:54.500Z,37.24
2023-05-05T13:10:17.656Z,37.89
2023-05-05T13:13:41.376Z,37.64
2023-05-05T13:17:08.458Z,38.17
2023-05-05T13:20:26.652Z,38.46
2023-05-05T13:23:44.375Z,37.69
2023-05-05T13:27:00.258Z,37.50
2023-05-05T13:30:18.488Z,38.62
2023-05-05T13:33:36.624Z,37.60
2023-05-05T13:36:59.498Z,37.09
2023-05-05T13:40:15.076Z,36.91
2023-05-05T13:43:30.848Z,37.04
2023-05-05T13:46:56.600Z,36.50
2023-05-05T13:50:12.996Z,37.39
2023-05-05T13:53:29.660Z,39.01
2023-05-05T13:56:47.074Z,37.92
2023-05-05T14:00:03.167Z,37.94
2023-05-05T14:03:21.511Z,36.93
2023-05-05T14:06:36.440Z,37.50
2023-05-05T14:09:52.375Z,37.44
2023-05-05T14:13:08.813Z,36.99
2023-05-05T14:16:24.662Z,37.00
2023-05-05T14:19:42.782Z,37.75
2023-05-05T14:22:57.226Z,37.29
2023-05-05T14:26:11.460Z,37.11
2023-05-05T14:29:25.632Z,37.17
2023-05-05T14:32:39.988Z,36.83
2023-05-05T14:35:55.779Z,36.75
2023-05-05T14:39:09.979Z,38.20
2023-05-05T14:42:24.395Z,36.43
2023-05-05T14:45:38.817Z,36.71
2023-05-05T14:48:52.988Z,36.95
2023-05-05T14:52:08.773Z,36.30
2023-05-05T14:55:23.028Z,36.63
2023-05-05T14:58:37.493Z,36.21
2023-05-05T15:01:53.235Z,35.22
2023-05-05T15:05:08.882Z,35.79
2023-05-05T15:08:24.700Z,36.44
